sensor_id;sensor_type;location;lat;lon;timestamp;temperature;humidity
59469;DHT22;45277;52.768;18.262;2022-12-18T00:00:51;-3.10;99.90
59469;DHT22;45277;52.768;18.262;2022-12-18T00:02:42;-3.10;99.90
59469;DHT22;45277;52.768;18.262;2022-12-18T00:04:24;-3.10;99.90
59469;DHT22;45277;52.768;18.262;2022-12-18T00:05:56;-3.10;99.90
59469;DHT22;45277;52.768;18.262;2022-12-18T00:07:27;-3.10;99.90
59469;DHT22;45277;52.768;18.262;2022-12-18T00:09:00;-3.10;99.90
59469;DHT22;45277;52.768;18.262;2022-12-18T00:10:31;-3.10;99.90
59469;DHT22;45277;52.768;18.262;2022-12-18T00:12:03;-3.10;99.90
59469;DHT22;45277;52.768;18.262;2022-12-18T00:13:35;-3.10;99.90
59469;DHT22;45277;52.768;18.262;2022-12-18T00:15:07;-3.20;99.90
59469;DHT22;45277;52.768;18.262;2022-12-18T00:16:38;-3.30;99.90
59469;DHT22;45277;52.768;18.262;2022-12-18T00:18:10;-3.30;99.90
59469;DHT22;45277;52.768;18.262;2022-12-18T00:19:42;-3.30;99.90
59469;DHT22;45277;52.768;18.262;2022-12-18T00:21:13;-3.30;99.90
59469;DHT22;45277;52.768;18.262;2022-12-18T00:22:45;-3.30;99.90
59469;DHT22;45277;52.768;18.262;2022-12-18T00:24:16;-3.30;99.90
59469;DHT22;45277;52.768;18.262;2022-12-18T00:25:48;-3.30;99.90
59469;DHT22;45277;52.768;18.262;2022-12-18T00:27:19;-3.30;99.90
59469;DHT22;45277;52.768;18.262;2022-12-18T00:28:52;-3.30;99.90
59469;DHT22;45277;52.768;18.262;2022-12-18T00:30:23;-3.30;99.90
59469;DHT22;45277;52.768;18.262;2022-12-18T00:31:54;-3.30;99.90
59469;DHT22;45277;52.768;18.262;2022-12-18T00:33:26;-3.30;99.90
59469;DHT22;45277;52.768;18.262;2022-12-18T00:34:58;-3.20;99.90
59469;DHT22;45277;52.768;18.262;2022-12-18T00:36:32;-3.30;99.90
59469;DHT22;45277;52.768;18.262;2022-12-18T00:38:04;-3.30;99.90
59469;DHT22;45277;52.768;18.262;2022-12-18T00:39:37;-3.30;99.90
59469;DHT22;45277;52.768;18.262;2022-12-18T00:41:09;-3.30;99.90
59469;DHT22;45277;52.768;18.262;2022-12-18T00:42:41;-3.30;99.90
59469;DHT22;45277;52.768;18.262;2022-12-18T00:44:28;-3.40;99.90
59469;DHT22;45277;52.768;18.262;2022-12-18T00:45:59;-3.30;99.90
59469;DHT22;45277;52.768;18.262;2022-12-18T00:47:31;-3.40;99.90
59469;DHT22;45277;52.768;18.262;2022-12-18T00:49:03;-3.30;99.90
59469;DHT22;45277;52.768;18.262;2022-12-18T00:50:34;-3.30;99.90
59469;DHT22;45277;52.768;18.262;2022-12-18T00:52:06;-3.30;99.90
59469;DHT22;45277;52.768;18.262;2022-12-18T00:53:37;-3.30;99.90
59469;DHT22;45277;52.768;18.262;2022-12-18T00:55:10;-3.30;99.90
59469;DHT22;45277;52.768;18.262;2022-12-18T00:56:42;-3.30;99.90
59469;DHT22;45277;52.768;18.262;2022-12-18T00:58:15;-3.30;99.90
59469;DHT22;45277;52.768;18.262;2022-12-18T00:59:47;-3.30;99.90
59469;DHT22;45277;52.768;18.262;2022-12-18T01:01:19;-3.30;99.90
59469;DHT22;45277;52.768;18.262;2022-12-18T01:02:51;-3.30;99.90
59469;DHT22;45277;52.768;18.262;2022-12-18T01:04:22;-3.30;99.90
59469;DHT22;45277;52.768;18.262;2022-12-18T01:05:54;-3.20;99.90
59469;DHT22;45277;52.768;18.262;2022-12-18T01:07:25;-3.20;99.90
59469;DHT22;45277;52.768;18.262;2022-12-18T01:08:57;-3.20;99.90
59469;DHT22;45277;52.768;18.262;2022-12-18T01:10:28;-3.20;99.90
59469;DHT22;45277;52.768;18.262;2022-12-18T01:12:00;-3.20;99.90
59469;DHT22;45277;52.768;18.262;2022-12-18T01:13:31;-3.20;99.90
59469;DHT22;45277;52.768;18.262;2022-12-18T01:15:04;-3.20;99.90
59469;DHT22;45277;52.768;18.262;2022-12-18T01:16:36;-3.10;99.90
59469;DHT22;45277;52.768;18.262;2022-12-18T01:18:07;-3.10;99.90
59469;DHT22;45277;52.768;18.262;2022-12-18T01:19:39;-3.10;99.90
59469;DHT22;45277;52.768;18.262;2022-12-18T01:21:13;-3.10;99.90
59469;DHT22;45277;52.768;18.262;2022-12-18T01:22:45;-3.10;99.90
59469;DHT22;45277;52.768;18.262;2022-12-18T01:24:16;-3.10;99.90
59469;DHT22;45277;52.768;18.262;2022-12-18T01:25:48;-3.10;99.90
59469;DHT22;45277;52.768;18.262;2022-12-18T01:27:19;-3.00;99.90
59469;DHT22;45277;52.768;18.262;2022-12-18T01:28:51;-3.00;99.90
59469;DHT22;45277;52.768;18.262;2022-12-18T01:30:22;-3.00;99.90
59469;DHT22;45277;52.768;18.262;2022-12-18T01:31:55;-3.00;99.90
59469;DHT22;45277;52.768;18.262;2022-12-18T01:33:27;-3.10;99.90
59469;DHT22;45277;52.768;18.262;2022-12-18T01:34:58;-3.00;99.90
59469;DHT22;45277;52.768;18.262;2022-12-18T01:36:34;-3.10;99.90
59469;DHT22;45277;52.768;18.262;2022-12-18T01:38:06;-3.00;99.90
59469;DHT22;45277;52.768;18.262;2022-12-18T01:39:38;-3.00;99.90
59469;DHT22;45277;52.768;18.262;2022-12-18T01:41:10;-3.00;99.90
59469;DHT22;45277;52.768;18.262;2022-12-18T01:42:42;-2.90;99.90
59469;DHT22;45277;52.768;18.262;2022-12-18T01:46:23;-3.00;99.90
59469;DHT22;45277;52.768;18.262;2022-12-18T01:48:01;-3.00;99.90
59469;DHT22;45277;52.768;18.262;2022-12-18T01:49:33;-3.00;99.90
59469;DHT22;45277;52.768;18.262;2022-12-18T01:51:06;-3.00;99.90
59469;DHT22;45277;52.768;18.262;2022-12-18T01:52:51;-3.00;99.90
59469;DHT22;45277;52.768;18.262;2022-12-18T01:54:24;-3.00;99.90
59469;DHT22;45277;52.768;18.262;2022-12-18T01:55:56;-2.90;99.90
59469;DHT22;45277;52.768;18.262;2022-12-18T01:57:29;-2.90;99.90
59469;DHT22;45277;52.768;18.262;2022-12-18T01:59:03;-2.90;99.90
59469;DHT22;45277;52.768;18.262;2022-12-18T02:00:35;-2.90;99.90
59469;DHT22;45277;52.768;18.262;2022-12-18T02:02:07;-2.90;99.90
59469;DHT22;45277;52.768;18.262;2022-12-18T02:03:42;-2.90;99.90
59469;DHT22;45277;52.768;18.262;2022-12-18T02:05:18;-3.00;99.90
59469;DHT22;45277;52.768;18.262;2022-12-18T02:07:17;-3.00;99.90
59469;DHT22;45277;52.768;18.262;2022-12-18T02:09:15;-3.00;99.90
59469;DHT22;45277;52.768;18.262;2022-12-18T02:10:53;-3.10;99.90
59469;DHT22;45277;52.768;18.262;2022-12-18T02:16:58;-3.00;99.90
59469;DHT22;45277;52.768;18.262;2022-12-18T02:18:30;-3.00;99.90
59469;DHT22;45277;52.768;18.262;2022-12-18T02:20:29;-3.00;99.90
59469;DHT22;45277;52.768;18.262;2022-12-18T02:24:22;-3.00;99.90
59469;DHT22;45277;52.768;18.262;2022-12-18T02:27:45;-3.00;99.90
59469;DHT22;45277;52.768;18.262;2022-12-18T02:29:21;-3.00;99.90
59469;DHT22;45277;52.768;18.262;2022-12-18T02:30:56;-3.10;99.90
59469;DHT22;45277;52.768;18.262;2022-12-18T02:32:39;-3.10;99.90
59469;DHT22;45277;52.768;18.262;2022-12-18T02:34:12;-3.10;99.90
59469;DHT22;45277;52.768;18.262;2022-12-18T02:35:45;-3.00;99.90
59469;DHT22;45277;52.768;18.262;2022-12-18T02:37:18;-3.00;99.90
59469;DHT22;45277;52.768;18.262;2022-12-18T02:38:52;-3.00;99.90
59469;DHT22;45277;52.768;18.262;2022-12-18T02:40:26;-3.00;99.90
59469;DHT22;45277;52.768;18.262;2022-12-18T02:41:59;-2.90;99.90
59469;DHT22;45277;52.768;18.262;2022-12-18T02:43:33;-2.90;99.90
59469;DHT22;45277;52.768;18.262;2022-12-18T02:45:05;-3.00;99.90
59469;DHT22;45277;52.768;18.262;2022-12-18T02:46:41;-3.00;99.90
59469;DHT22;45277;52.768;18.262;2022-12-18T02:48:14;-3.00;99.90
59469;DHT22;45277;52.768;18.262;2022-12-18T02:52:11;-3.10;99.90
59469;DHT22;45277;52.768;18.262;2022-12-18T02:54:06;-3.10;99.90
59469;DHT22;45277;52.768;18.262;2022-12-18T02:58:03;-3.00;99.90
59469;DHT22;45277;52.768;18.262;2022-12-18T03:01:52;-3.10;99.90
59469;DHT22;45277;52.768;18.262;2022-12-18T03:03:33;-3.20;99.90
59469;DHT22;45277;52.768;18.262;2022-12-18T03:06:49;-3.10;99.90
59469;DHT22;45277;52.768;18.262;2022-12-18T03:08:27;-3.10;99.90
59469;DHT22;45277;52.768;18.262;2022-12-18T03:10:00;-3.10;99.90
59469;DHT22;45277;52.768;18.262;2022-12-18T03:11:34;-3.20;99.90
59469;DHT22;45277;52.768;18.262;2022-12-18T03:13:50;-3.20;99.90
59469;DHT22;45277;52.768;18.262;2022-12-18T03:15:30;-3.20;99.90
59469;DHT22;45277;52.768;18.262;2022-12-18T03:17:05;-3.10;99.90
59469;DHT22;45277;52.768;18.262;2022-12-18T03:19:01;-3.20;99.90
59469;DHT22;45277;52.768;18.262;2022-12-18T03:20:35;-3.20;99.90
59469;DHT22;45277;52.768;18.262;2022-12-18T03:22:08;-3.20;99.90
59469;DHT22;45277;52.768;18.262;2022-12-18T03:23:45;-3.10;99.90
59469;DHT22;45277;52.768;18.262;2022-12-18T03:25:19;-3.20;99.90
59469;DHT22;45277;52.768;18.262;2022-12-18T03:26:54;-3.20;99.90
59469;DHT22;45277;52.768;18.262;2022-12-18T03:28:28;-3.10;99.90
59469;DHT22;45277;52.768;18.262;2022-12-18T03:30:04;-3.10;99.90
59469;DHT22;45277;52.768;18.262;2022-12-18T03:31:40;-3.20;99.90
59469;DHT22;45277;52.768;18.262;2022-12-18T03:33:20;-3.20;99.90
59469;DHT22;45277;52.768;18.262;2022-12-18T03:34:56;-3.10;99.90
59469;DHT22;45277;52.768;18.262;2022-12-18T03:36:29;-3.10;99.90
59469;DHT22;45277;52.768;18.262;2022-12-18T03:38:01;-3.20;99.90
59469;DHT22;45277;52.768;18.262;2022-12-18T03:39:34;-3.10;99.90
59469;DHT22;45277;52.768;18.262;2022-12-18T03:41:16;-3.10;99.90
59469;DHT22;45277;52.768;18.262;2022-12-18T03:43:01;-3.10;99.90
59469;DHT22;45277;52.768;18.262;2022-12-18T03:44:48;-3.10;99.90
59469;DHT22;45277;52.768;18.262;2022-12-18T03:46:36;-3.10;99.90
59469;DHT22;45277;52.768;18.262;2022-12-18T03:48:32;-3.20;99.90
59469;DHT22;45277;52.768;18.262;2022-12-18T03:51:59;-3.20;99.90
59469;DHT22;45277;52.768;18.262;2022-12-18T03:53:42;-3.20;99.90
59469;DHT22;45277;52.768;18.262;2022-12-18T03:55:17;-3.30;99.90
59469;DHT22;45277;52.768;18.262;2022-12-18T03:56:58;-3.20;99.90
59469;DHT22;45277;52.768;18.262;2022-12-18T03:58:32;-3.30;99.90
59469;DHT22;45277;52.768;18.262;2022-12-18T04:00:11;-3.30;99.90
59469;DHT22;45277;52.768;18.262;2022-12-18T04:01:46;-3.30;99.90
59469;DHT22;45277;52.768;18.262;2022-12-18T04:03:18;-3.30;99.90
59469;DHT22;45277;52.768;18.262;2022-12-18T04:04:57;-3.30;99.90
59469;DHT22;45277;52.768;18.262;2022-12-18T04:06:30;-3.30;99.90
59469;DHT22;45277;52.768;18.262;2022-12-18T04:08:07;-3.30;99.90
59469;DHT22;45277;52.768;18.262;2022-12-18T04:09:39;-3.30;99.90
59469;DHT22;45277;52.768;18.262;2022-12-18T04:11:12;-3.30;99.90
59469;DHT22;45277;52.768;18.262;2022-12-18T04:12:43;-3.30;99.90
59469;DHT22;45277;52.768;18.262;2022-12-18T04:14:15;-3.30;99.90
59469;DHT22;45277;52.768;18.262;2022-12-18T04:15:46;-3.20;99.90
59469;DHT22;45277;52.768;18.262;2022-12-18T04:17:18;-3.20;99.90
59469;DHT22;45277;52.768;18.262;2022-12-18T04:18:49;-3.20;99.90
59469;DHT22;45277;52.768;18.262;2022-12-18T04:20:21;-3.20;99.90
59469;DHT22;45277;52.768;18.262;2022-12-18T04:21:52;-3.30;99.90
59469;DHT22;45277;52.768;18.262;2022-12-18T04:23:24;-3.30;99.90
59469;DHT22;45277;52.768;18.262;2022-12-18T04:24:55;-3.40;99.90
59469;DHT22;45277;52.768;18.262;2022-12-18T04:26:27;-3.40;99.90
59469;DHT22;45277;52.768;18.262;2022-12-18T04:27:58;-3.40;99.90
59469;DHT22;45277;52.768;18.262;2022-12-18T04:29:30;-3.40;99.90
59469;DHT22;45277;52.768;18.262;2022-12-18T04:31:01;-3.50;99.90
59469;DHT22;45277;52.768;18.262;2022-12-18T04:32:34;-3.40;99.90
59469;DHT22;45277;52.768;18.262;2022-12-18T04:34:05;-3.40;99.90
59469;DHT22;45277;52.768;18.262;2022-12-18T04:35:37;-3.40;99.90
59469;DHT22;45277;52.768;18.262;2022-12-18T04:37:08;-3.40;99.90
59469;DHT22;45277;52.768;18.262;2022-12-18T04:38:40;-3.30;99.90
59469;DHT22;45277;52.768;18.262;2022-12-18T04:40:12;-3.40;99.90
59469;DHT22;45277;52.768;18.262;2022-12-18T04:41:43;-3.40;99.90
59469;DHT22;45277;52.768;18.262;2022-12-18T04:43:15;-3.40;99.90
59469;DHT22;45277;52.768;18.262;2022-12-18T04:44:46;-3.40;99.90
59469;DHT22;45277;52.768;18.262;2022-12-18T04:46:18;-3.40;99.90
59469;DHT22;45277;52.768;18.262;2022-12-18T04:47:50;-3.50;99.90
59469;DHT22;45277;52.768;18.262;2022-12-18T04:49:21;-3.50;99.90
59469;DHT22;45277;52.768;18.262;2022-12-18T04:50:53;-3.50;99.90
59469;DHT22;45277;52.768;18.262;2022-12-18T04:52:24;-3.40;99.90
59469;DHT22;45277;52.768;18.262;2022-12-18T04:53:56;-3.40;99.90
59469;DHT22;45277;52.768;18.262;2022-12-18T04:55:28;-3.50;99.90
59469;DHT22;45277;52.768;18.262;2022-12-18T04:57:00;-3.50;99.90
59469;DHT22;45277;52.768;18.262;2022-12-18T04:58:31;-3.50;99.90
59469;DHT22;45277;52.768;18.262;2022-12-18T05:00:03;-3.50;99.90
59469;DHT22;45277;52.768;18.262;2022-12-18T05:01:36;-3.60;99.90
59469;DHT22;45277;52.768;18.262;2022-12-18T05:03:08;-3.60;99.90
59469;DHT22;45277;52.768;18.262;2022-12-18T05:04:39;-3.60;99.90
59469;DHT22;45277;52.768;18.262;2022-12-18T05:06:11;-3.50;99.90
59469;DHT22;45277;52.768;18.262;2022-12-18T05:07:42;-3.50;99.90
59469;DHT22;45277;52.768;18.262;2022-12-18T05:09:14;-3.60;99.90
59469;DHT22;45277;52.768;18.262;2022-12-18T05:10:46;-3.50;99.90
59469;DHT22;45277;52.768;18.262;2022-12-18T05:12:17;-3.50;99.90
59469;DHT22;45277;52.768;18.262;2022-12-18T05:13:49;-3.60;99.90
59469;DHT22;45277;52.768;18.262;2022-12-18T05:15:20;-3.50;99.90
59469;DHT22;45277;52.768;18.262;2022-12-18T05:16:51;-3.50;99.90
59469;DHT22;45277;52.768;18.262;2022-12-18T05:18:24;-3.60;99.90
59469;DHT22;45277;52.768;18.262;2022-12-18T05:19:55;-3.60;99.90
59469;DHT22;45277;52.768;18.262;2022-12-18T05:21:27;-3.60;99.90
59469;DHT22;45277;52.768;18.262;2022-12-18T05:22:59;-3.60;99.90
59469;DHT22;45277;52.768;18.262;2022-12-18T05:24:30;-3.60;99.90
59469;DHT22;45277;52.768;18.262;2022-12-18T05:26:04;-3.70;99.90
59469;DHT22;45277;52.768;18.262;2022-12-18T05:27:36;-3.70;99.90
59469;DHT22;45277;52.768;18.262;2022-12-18T05:29:07;-3.70;99.90
59469;DHT22;45277;52.768;18.262;2022-12-18T05:30:38;-3.70;99.90
59469;DHT22;45277;52.768;18.262;2022-12-18T05:32:10;-3.70;99.90
59469;DHT22;45277;52.768;18.262;2022-12-18T05:33:41;-3.80;99.90
59469;DHT22;45277;52.768;18.262;2022-12-18T05:35:13;-3.70;99.90
59469;DHT22;45277;52.768;18.262;2022-12-18T05:36:44;-3.80;99.90
59469;DHT22;45277;52.768;18.262;2022-12-18T05:38:16;-3.80;99.90
59469;DHT22;45277;52.768;18.262;2022-12-18T05:39:47;-3.90;99.90
59469;DHT22;45277;52.768;18.262;2022-12-18T05:41:19;-3.90;99.90
59469;DHT22;45277;52.768;18.262;2022-12-18T05:42:50;-3.90;99.90
59469;DHT22;45277;52.768;18.262;2022-12-18T05:44:21;-3.80;99.90
59469;DHT22;45277;52.768;18.262;2022-12-18T05:45:53;-3.80;99.90
59469;DHT22;45277;52.768;18.262;2022-12-18T05:47:26;-3.80;99.90
59469;DHT22;45277;52.768;18.262;2022-12-18T05:49:00;-3.80;99.90
59469;DHT22;45277;52.768;18.262;2022-12-18T05:50:39;-3.80;99.90
59469;DHT22;45277;52.768;18.262;2022-12-18T05:52:11;-3.90;99.90
59469;DHT22;45277;52.768;18.262;2022-12-18T05:53:42;-3.90;99.90
59469;DHT22;45277;52.768;18.262;2022-12-18T05:55:14;-3.90;99.90
59469;DHT22;45277;52.768;18.262;2022-12-18T05:56:45;-3.90;99.90
59469;DHT22;45277;52.768;18.262;2022-12-18T05:58:17;-4.00;99.90
59469;DHT22;45277;52.768;18.262;2022-12-18T05:59:48;-4.00;99.90
59469;DHT22;45277;52.768;18.262;2022-12-18T06:01:23;-4.10;99.90
59469;DHT22;45277;52.768;18.262;2022-12-18T06:02:54;-4.10;99.90
59469;DHT22;45277;52.768;18.262;2022-12-18T06:04:27;-4.10;99.90
59469;DHT22;45277;52.768;18.262;2022-12-18T06:05:59;-4.10;99.90
59469;DHT22;45277;52.768;18.262;2022-12-18T06:07:31;-4.10;99.90
59469;DHT22;45277;52.768;18.262;2022-12-18T06:09:03;-4.10;99.90
59469;DHT22;45277;52.768;18.262;2022-12-18T06:10:41;-4.10;99.90
59469;DHT22;45277;52.768;18.262;2022-12-18T06:12:12;-4.10;99.90
59469;DHT22;45277;52.768;18.262;2022-12-18T06:13:44;-4.10;99.90
59469;DHT22;45277;52.768;18.262;2022-12-18T06:15:16;-4.10;99.90
59469;DHT22;45277;52.768;18.262;2022-12-18T06:16:47;-4.20;99.90
59469;DHT22;45277;52.768;18.262;2022-12-18T06:18:18;-4.20;99.90
59469;DHT22;45277;52.768;18.262;2022-12-18T06:19:50;-4.30;99.90
59469;DHT22;45277;52.768;18.262;2022-12-18T06:21:21;-4.30;99.90
59469;DHT22;45277;52.768;18.262;2022-12-18T06:22:53;-4.30;99.90
59469;DHT22;45277;52.768;18.262;2022-12-18T06:24:24;-4.30;99.90
59469;DHT22;45277;52.768;18.262;2022-12-18T06:25:56;-4.30;99.90
59469;DHT22;45277;52.768;18.262;2022-12-18T06:27:28;-4.30;99.90
59469;DHT22;45277;52.768;18.262;2022-12-18T06:28:59;-4.30;99.90
59469;DHT22;45277;52.768;18.262;2022-12-18T06:30:31;-4.30;99.90
59469;DHT22;45277;52.768;18.262;2022-12-18T06:32:02;-4.20;99.90
59469;DHT22;45277;52.768;18.262;2022-12-18T06:33:34;-4.30;99.90
59469;DHT22;45277;52.768;18.262;2022-12-18T06:35:06;-4.30;99.90
59469;DHT22;45277;52.768;18.262;2022-12-18T06:36:38;-4.40;99.90
59469;DHT22;45277;52.768;18.262;2022-12-18T06:38:10;-4.40;99.90
59469;DHT22;45277;52.768;18.262;2022-12-18T06:39:41;-4.40;99.90
59469;DHT22;45277;52.768;18.262;2022-12-18T06:41:15;-4.40;99.90
59469;DHT22;45277;52.768;18.262;2022-12-18T06:42:46;-4.40;99.90
59469;DHT22;45277;52.768;18.262;2022-12-18T06:44:18;-4.50;99.90
59469;DHT22;45277;52.768;18.262;2022-12-18T06:45:49;-4.50;99.90
59469;DHT22;45277;52.768;18.262;2022-12-18T06:47:23;-4.50;99.90
59469;DHT22;45277;52.768;18.262;2022-12-18T06:48:54;-4.50;99.90
59469;DHT22;45277;52.768;18.262;2022-12-18T06:50:26;-4.50;99.90
59469;DHT22;45277;52.768;18.262;2022-12-18T06:51:57;-4.60;99.90
59469;DHT22;45277;52.768;18.262;2022-12-18T06:53:29;-4.60;99.90
59469;DHT22;45277;52.768;18.262;2022-12-18T06:55:01;-4.60;99.90
59469;DHT22;45277;52.768;18.262;2022-12-18T06:56:32;-4.60;99.90
59469;DHT22;45277;52.768;18.262;2022-12-18T06:58:03;-4.60;99.90
59469;DHT22;45277;52.768;18.262;2022-12-18T06:59:35;-4.60;99.90
59469;DHT22;45277;52.768;18.262;2022-12-18T07:01:09;-4.60;99.90
59469;DHT22;45277;52.768;18.262;2022-12-18T07:02:41;-4.70;99.90
59469;DHT22;45277;52.768;18.262;2022-12-18T07:04:13;-4.70;99.90
59469;DHT22;45277;52.768;18.262;2022-12-18T07:05:44;-4.70;99.90
59469;DHT22;45277;52.768;18.262;2022-12-18T07:07:15;-4.70;99.90
59469;DHT22;45277;52.768;18.262;2022-12-18T07:08:48;-4.70;99.90
59469;DHT22;45277;52.768;18.262;2022-12-18T07:10:20;-4.70;99.90
59469;DHT22;45277;52.768;18.262;2022-12-18T07:11:51;-4.80;99.90
59469;DHT22;45277;52.768;18.262;2022-12-18T07:13:23;-4.80;99.90
59469;DHT22;45277;52.768;18.262;2022-12-18T07:14:54;-4.80;99.90
59469;DHT22;45277;52.768;18.262;2022-12-18T07:16:26;-4.90;99.90
59469;DHT22;45277;52.768;18.262;2022-12-18T07:17:59;-4.90;99.90
59469;DHT22;45277;52.768;18.262;2022-12-18T07:19:31;-4.90;99.90
59469;DHT22;45277;52.768;18.262;2022-12-18T07:21:07;-4.90;99.90
59469;DHT22;45277;52.768;18.262;2022-12-18T07:22:39;-4.90;99.90
59469;DHT22;45277;52.768;18.262;2022-12-18T07:24:10;-5.00;99.90
59469;DHT22;45277;52.768;18.262;2022-12-18T07:25:41;-5.00;99.90
59469;DHT22;45277;52.768;18.262;2022-12-18T07:27:13;-5.00;99.90
59469;DHT22;45277;52.768;18.262;2022-12-18T07:28:44;-5.10;99.90
59469;DHT22;45277;52.768;18.262;2022-12-18T07:30:16;-5.10;99.90
59469;DHT22;45277;52.768;18.262;2022-12-18T07:31:47;-5.10;99.90
59469;DHT22;45277;52.768;18.262;2022-12-18T07:33:20;-5.10;99.90
59469;DHT22;45277;52.768;18.262;2022-12-18T07:34:51;-5.10;99.90
59469;DHT22;45277;52.768;18.262;2022-12-18T07:36:23;-5.20;99.90
59469;DHT22;45277;52.768;18.262;2022-12-18T07:37:54;-5.20;99.90
59469;DHT22;45277;52.768;18.262;2022-12-18T07:39:26;-5.20;99.90
59469;DHT22;45277;52.768;18.262;2022-12-18T07:41:05;-5.20;99.90
59469;DHT22;45277;52.768;18.262;2022-12-18T07:42:37;-5.20;99.90
59469;DHT22;45277;52.768;18.262;2022-12-18T07:44:10;-5.20;99.90
59469;DHT22;45277;52.768;18.262;2022-12-18T07:45:43;-5.30;99.90
59469;DHT22;45277;52.768;18.262;2022-12-18T07:47:14;-5.30;99.90
59469;DHT22;45277;52.768;18.262;2022-12-18T07:48:46;-5.30;99.90
59469;DHT22;45277;52.768;18.262;2022-12-18T07:50:17;-5.40;99.90
59469;DHT22;45277;52.768;18.262;2022-12-18T07:51:49;-5.40;99.90
59469;DHT22;45277;52.768;18.262;2022-12-18T07:53:20;-5.40;99.90
59469;DHT22;45277;52.768;18.262;2022-12-18T07:54:52;-5.40;99.90
59469;DHT22;45277;52.768;18.262;2022-12-18T07:56:23;-5.40;99.90
59469;DHT22;45277;52.768;18.262;2022-12-18T07:57:55;-5.40;99.90
59469;DHT22;45277;52.768;18.262;2022-12-18T07:59:27;-5.40;99.90
59469;DHT22;45277;52.768;18.262;2022-12-18T08:02:36;-5.50;99.90
59469;DHT22;45277;52.768;18.262;2022-12-18T08:04:07;-5.50;99.90
59469;DHT22;45277;52.768;18.262;2022-12-18T08:05:39;-5.50;99.90
59469;DHT22;45277;52.768;18.262;2022-12-18T08:07:10;-5.50;99.90
59469;DHT22;45277;52.768;18.262;2022-12-18T08:08:42;-5.40;99.90
59469;DHT22;45277;52.768;18.262;2022-12-18T08:10:13;-5.30;99.90
59469;DHT22;45277;52.768;18.262;2022-12-18T08:11:45;-5.30;99.90
59469;DHT22;45277;52.768;18.262;2022-12-18T08:13:17;-5.30;99.90
59469;DHT22;45277;52.768;18.262;2022-12-18T08:14:49;-5.30;99.90
59469;DHT22;45277;52.768;18.262;2022-12-18T08:16:21;-5.30;99.90
59469;DHT22;45277;52.768;18.262;2022-12-18T08:17:56;-5.30;99.90
59469;DHT22;45277;52.768;18.262;2022-12-18T08:19:27;-5.30;99.90
59469;DHT22;45277;52.768;18.262;2022-12-18T08:21:10;-5.20;99.90
59469;DHT22;45277;52.768;18.262;2022-12-18T08:22:42;-5.20;99.90
59469;DHT22;45277;52.768;18.262;2022-12-18T08:24:14;-5.20;99.90
59469;DHT22;45277;52.768;18.262;2022-12-18T08:25:45;-5.20;99.90
59469;DHT22;45277;52.768;18.262;2022-12-18T08:27:17;-5.10;99.90
59469;DHT22;45277;52.768;18.262;2022-12-18T08:28:51;-5.10;99.90
59469;DHT22;45277;52.768;18.262;2022-12-18T08:30:24;-5.20;99.90
59469;DHT22;45277;52.768;18.262;2022-12-18T08:31:56;-5.20;99.90
59469;DHT22;45277;52.768;18.262;2022-12-18T08:33:27;-5.10;99.90
59469;DHT22;45277;52.768;18.262;2022-12-18T08:34:59;-5.10;99.90
59469;DHT22;45277;52.768;18.262;2022-12-18T08:36:31;-5.10;99.90
59469;DHT22;45277;52.768;18.262;2022-12-18T08:38:03;-5.10;99.90
59469;DHT22;45277;52.768;18.262;2022-12-18T08:39:34;-5.10;99.90
59469;DHT22;45277;52.768;18.262;2022-12-18T08:41:08;-5.20;99.90
59469;DHT22;45277;52.768;18.262;2022-12-18T08:42:40;-5.30;99.90
59469;DHT22;45277;52.768;18.262;2022-12-18T08:44:41;-5.20;99.90
59469;DHT22;45277;52.768;18.262;2022-12-18T08:46:15;-5.30;99.90
59469;DHT22;45277;52.768;18.262;2022-12-18T08:47:46;-5.30;99.90
59469;DHT22;45277;52.768;18.262;2022-12-18T08:49:19;-5.30;99.90
59469;DHT22;45277;52.768;18.262;2022-12-18T08:50:59;-5.30;99.90
59469;DHT22;45277;52.768;18.262;2022-12-18T08:52:32;-5.30;99.90
59469;DHT22;45277;52.768;18.262;2022-12-18T08:54:05;-5.30;99.90
59469;DHT22;45277;52.768;18.262;2022-12-18T08:55:39;-5.30;99.90
59469;DHT22;45277;52.768;18.262;2022-12-18T08:57:11;-5.30;99.90
59469;DHT22;45277;52.768;18.262;2022-12-18T08:58:45;-5.30;99.90
59469;DHT22;45277;52.768;18.262;2022-12-18T09:00:17;-5.30;99.90
59469;DHT22;45277;52.768;18.262;2022-12-18T09:01:49;-5.30;99.90
59469;DHT22;45277;52.768;18.262;2022-12-18T09:03:22;-5.30;99.90
59469;DHT22;45277;52.768;18.262;2022-12-18T09:04:54;-5.30;99.90
59469;DHT22;45277;52.768;18.262;2022-12-18T09:06:26;-5.30;99.90
59469;DHT22;45277;52.768;18.262;2022-12-18T09:07:58;-5.30;99.90
59469;DHT22;45277;52.768;18.262;2022-12-18T09:09:30;-5.30;99.90
59469;DHT22;45277;52.768;18.262;2022-12-18T09:11:02;-5.30;99.90
59469;DHT22;45277;52.768;18.262;2022-12-18T09:12:36;-5.30;99.90
59469;DHT22;45277;52.768;18.262;2022-12-18T09:14:09;-5.40;99.90
59469;DHT22;45277;52.768;18.262;2022-12-18T09:15:50;-5.30;99.90
59469;DHT22;45277;52.768;18.262;2022-12-18T09:17:22;-5.40;99.90
59469;DHT22;45277;52.768;18.262;2022-12-18T09:18:58;-5.40;99.90
59469;DHT22;45277;52.768;18.262;2022-12-18T09:20:33;-5.40;99.90
59469;DHT22;45277;52.768;18.262;2022-12-18T09:22:06;-5.40;99.90
59469;DHT22;45277;52.768;18.262;2022-12-18T09:23:39;-5.50;99.90
59469;DHT22;45277;52.768;18.262;2022-12-18T09:25:12;-5.50;99.90
59469;DHT22;45277;52.768;18.262;2022-12-18T09:26:44;-5.50;99.90
59469;DHT22;45277;52.768;18.262;2022-12-18T09:28:18;-5.50;99.90
59469;DHT22;45277;52.768;18.262;2022-12-18T09:29:50;-5.50;99.90
59469;DHT22;45277;52.768;18.262;2022-12-18T09:31:24;-5.50;99.90
59469;DHT22;45277;52.768;18.262;2022-12-18T09:32:57;-5.40;99.90
59469;DHT22;45277;52.768;18.262;2022-12-18T09:34:29;-5.50;99.90
59469;DHT22;45277;52.768;18.262;2022-12-18T09:36:04;-5.50;99.90
59469;DHT22;45277;52.768;18.262;2022-12-18T09:37:38;-5.50;99.90
59469;DHT22;45277;52.768;18.262;2022-12-18T09:39:09;-5.50;99.90
59469;DHT22;45277;52.768;18.262;2022-12-18T09:40:57;-5.50;99.90
59469;DHT22;45277;52.768;18.262;2022-12-18T09:42:31;-5.50;99.90
59469;DHT22;45277;52.768;18.262;2022-12-18T09:46:03;-5.50;99.90
59469;DHT22;45277;52.768;18.262;2022-12-18T09:47:38;-5.50;99.90
59469;DHT22;45277;52.768;18.262;2022-12-18T09:49:16;-5.50;99.90
59469;DHT22;45277;52.768;18.262;2022-12-18T09:50:55;-5.50;99.90
59469;DHT22;45277;52.768;18.262;2022-12-18T09:52:36;-5.50;99.90
59469;DHT22;45277;52.768;18.262;2022-12-18T09:54:37;-5.40;99.90
59469;DHT22;45277;52.768;18.262;2022-12-18T09:56:20;-5.40;99.90
59469;DHT22;45277;52.768;18.262;2022-12-18T09:58:06;-5.40;99.90
59469;DHT22;45277;52.768;18.262;2022-12-18T09:59:41;-5.40;99.90
59469;DHT22;45277;52.768;18.262;2022-12-18T10:01:21;-5.30;99.90
59469;DHT22;45277;52.768;18.262;2022-12-18T10:03:01;-5.40;99.90
59469;DHT22;45277;52.768;18.262;2022-12-18T10:04:34;-5.40;99.90
59469;DHT22;45277;52.768;18.262;2022-12-18T10:06:28;-5.40;99.90
59469;DHT22;45277;52.768;18.262;2022-12-18T10:08:39;-5.40;99.90